createdAt,value
2018-06-05T00:00:37.888Z,13.63
2018-06-05T00:03:07.805Z,10.97
2018-06-05T00:05:37.820Z,14.63
2018-06-05T00:08:10.093Z,19.90
2018-06-05T00:10:40.009Z,9.03
2018-06-05T00:13:09.919Z,12.10
2018-06-05T00:15:40.536Z,5.63
2018-06-05T00:18:10.625Z,17.33
2018-06-05T00:20:40.790Z,16.37
2018-06-05T00:23:10.600Z,11.10
2018-06-05T00:25:41.335Z,9.80
2018-06-05T00:28:11.572Z,11.50
2018-06-05T00:30:41.470Z,14.97
2018-06-05T00:33:11.384Z,12.33
2018-06-05T00:35:42.322Z,13.00
2018-06-05T00:38:12.240Z,8.30
2018-06-05T00:40:42.151Z,10.17
2018-06-05T00:43:11.946Z,12.87
2018-06-05T00:45:50.071Z,8.80
2018-06-05T00:48:20.910Z,9.27
2018-06-05T00:50:50.820Z,15.43
2018-06-05T00:53:21.553Z,11.10
2018-06-05T00:55:51.449Z,15.93
2018-06-05T00:58:21.177Z,11.00
2018-06-05T01:00:51.091Z,11.50
2018-06-05T01:03:20.903Z,6.67
2018-06-05T01:05:50.816Z,16.60
2018-06-05T01:08:20.526Z,10.90
2018-06-05T01:10:50.235Z,11.23
2018-06-05T01:13:20.950Z,10.00
2018-06-05T01:15:51.689Z,5.80
2018-06-05T01:18:21.520Z,6.83
2018-06-05T01:20:51.327Z,12.27
2018-06-05T01:23:21.140Z,22.50
2018-06-05T01:25:51.159Z,9.13
2018-06-05T01:28:20.968Z,8.80
2018-06-05T01:30:51.907Z,18.30
2018-06-05T01:33:22.554Z,11.37
2018-06-05T01:35:52.349Z,6.87
2018-06-05T01:38:22.059Z,13.30
2018-06-05T01:40:51.958Z,12.80
2018-06-05T01:54:29.234Z,10.00
2018-06-05T01:56:59.767Z,7.90
2018-06-05T01:59:34.322Z,7.20
2018-06-05T02:02:04.301Z,11.43
2018-06-05T02:04:34.009Z,23.60
2018-06-05T02:07:03.823Z,11.23
2018-06-05T02:09:34.249Z,17.83
2018-06-05T02:12:04.061Z,17.33
2018-06-05T02:14:33.873Z,10.73
2018-06-05T02:17:04.503Z,11.30
2018-06-05T02:19:34.315Z,12.47
2018-06-05T02:22:04.023Z,7.23
2018-06-05T02:24:34.466Z,11.37
2018-06-05T02:27:05.391Z,9.13
2018-06-05T02:29:35.100Z,9.33
2018-06-05T02:32:04.809Z,8.83
2018-06-05T02:34:34.740Z,12.93
2018-06-05T02:37:04.330Z,9.13
2018-06-05T02:39:33.940Z,9.57
2018-06-05T02:42:03.749Z,16.20
2018-06-05T02:44:34.893Z,14.20
2018-06-05T02:47:04.806Z,12.80
2018-06-05T02:49:34.619Z,13.63
2018-06-05T02:52:04.431Z,11.70
2018-06-05T02:54:34.549Z,9.07
2018-06-05T02:57:04.464Z,25.63
2018-06-05T02:59:34.376Z,14.07
2018-06-05T03:02:04.274Z,20.93
2018-06-05T03:04:34.002Z,11.50
2018-06-05T03:07:04.121Z,12.83
2018-06-05T03:09:33.831Z,8.43
2018-06-05T03:12:05.259Z,15.00
2018-06-05T03:14:45.291Z,11.93
2018-06-05T03:17:17.913Z,10.33
2018-06-05T03:20:03.206Z,12.23
2018-06-05T03:22:48.654Z,16.03
2018-06-05T03:25:35.066Z,11.47
2018-06-05T03:28:17.714Z,11.37
2018-06-05T03:33:42.318Z,15.73
2018-06-05T03:36:23.172Z,8.13
2018-06-05T03:39:06.714Z,10.93
2018-06-05T03:41:48.690Z,14.33
2018-06-05T03:44:29.359Z,16.80
2018-06-05T03:50:30.230Z,14.03
2018-06-05T03:53:17.229Z,7.40
2018-06-05T03:55:58.201Z,11.37
2018-06-05T04:01:18.363Z,11.50
2018-06-05T04:03:59.577Z,8.10
2018-06-05T04:06:41.424Z,17.60
2018-06-05T04:09:31.521Z,9.50
2018-06-05T04:12:17.667Z,13.17
2018-06-05T04:17:59.563Z,12.00
2018-06-05T04:23:22.811Z,8.10
2018-06-05T04:26:37.195Z,7.33
2018-06-05T04:29:24.919Z,16.90
2018-06-05T04:38:13.437Z,15.13
2018-06-05T04:40:56.359Z,22.73
2018-06-05T04:43:40.611Z,11.80
2018-06-05T04:46:34.895Z,16.30
2018-06-05T04:52:10.922Z,13.90
2018-06-05T05:00:45.234Z,14.63
2018-06-05T05:03:24.497Z,11.67
2018-06-05T05:08:44.457Z,9.30
2018-06-05T05:11:31.385Z,9.53
2018-06-05T05:17:08.122Z,9.43
2018-06-05T05:19:54.054Z,13.27
2018-06-05T05:25:33.270Z,18.23
2018-06-05T05:36:35.851Z,13.37
2018-06-05T05:39:23.944Z,12.43
2018-06-05T05:42:05.730Z,16.90
2018-06-05T05:44:46.830Z,12.63
2018-06-05T05:47:28.106Z,22.50
2018-06-05T05:53:22.249Z,12.87
2018-06-05T05:56:19.874Z,16.43
2018-06-05T05:59:06.440Z,13.20
2018-06-05T06:01:55.009Z,12.97
2018-06-05T06:04:39.983Z,18.13
2018-06-05T06:07:23.489Z,12.67
2018-06-05T06:10:04.856Z,22.07
2018-06-05T06:14:04.260Z,21.27
2018-06-05T06:16:42.082Z,15.90
2018-06-05T06:22:13.380Z,17.60
2018-06-05T06:28:04.037Z,18.00
2018-06-05T06:30:43.054Z,20.63
2018-06-05T06:36:15.963Z,17.10
2018-06-05T06:38:56.889Z,17.13
2018-06-05T06:41:27.077Z,10.90
2018-06-05T06:43:56.976Z,24.00
2018-06-05T06:46:27.308Z,13.83
2018-06-05T06:48:57.353Z,10.93
2018-06-05T06:51:27.332Z,16.57
2018-06-05T06:53:57.249Z,17.00
2018-06-05T06:56:27.571Z,19.27
2018-06-05T06:58:57.381Z,31.03
2018-06-05T07:01:27.390Z,13.67
2018-06-05T07:03:57.314Z,16.50
2018-06-05T07:06:27.125Z,12.87
2018-06-05T07:08:57.802Z,19.37
2018-06-05T07:11:28.118Z,16.77
2018-06-05T07:13:58.824Z,19.93
2018-06-05T07:16:29.036Z,17.40
2018-06-05T07:18:58.745Z,17.40
2018-06-05T07:21:29.092Z,18.17
2018-06-05T07:23:59.261Z,18.10
2018-06-05T07:26:30.435Z,13.70
2018-06-05T07:29:00.246Z,14.87
2018-06-05T07:31:30.263Z,15.67
2018-06-05T07:34:00.146Z,14.20
2018-06-05T07:36:29.885Z,13.40
2018-06-05T07:38:59.698Z,20.43
2018-06-05T07:41:30.328Z,15.93
2018-06-05T07:44:00.141Z,16.20
2018-06-05T07:46:30.157Z,16.60
2018-06-05T07:48:59.998Z,11.97
2018-06-05T07:51:29.879Z,14.50
2018-06-05T07:54:00.005Z,12.10
2018-06-05T07:56:29.917Z,21.73
2018-06-05T07:59:00.103Z,17.10
2018-06-05T08:01:30.582Z,15.33
2018-06-05T08:04:01.180Z,16.53
2018-06-05T08:06:31.213Z,22.97
2018-06-05T08:09:01.027Z,13.70
2018-06-05T08:11:30.836Z,20.37
2018-06-05T08:14:00.751Z,26.00
2018-06-05T08:16:30.741Z,13.90
2018-06-05T08:19:01.368Z,13.20
2018-06-05T08:21:31.108Z,16.37
2018-06-05T08:24:00.921Z,22.57
2018-06-05T08:27:01.349Z,25.30
2018-06-05T08:29:31.366Z,9.47
2018-06-05T08:32:01.184Z,12.40
2018-06-05T08:34:31.151Z,16.20
2018-06-05T08:37:00.905Z,13.33
2018-06-05T08:39:30.828Z,16.87
2018-06-05T08:42:00.939Z,18.90
2018-06-05T08:44:30.758Z,13.40
2018-06-05T08:47:00.664Z,11.77
2018-06-05T08:49:30.680Z,12.97
2018-06-05T08:52:00.597Z,14.83
2018-06-05T08:54:30.514Z,17.77
2018-06-05T08:57:00.429Z,32.80
2018-06-05T08:59:30.545Z,17.43
2018-06-05T09:02:01.273Z,12.40
2018-06-05T09:04:31.303Z,20.03
2018-06-05T09:07:01.210Z,14.43
2018-06-05T09:09:31.239Z,17.90
2018-06-05T09:12:01.041Z,20.60
2018-06-05T09:14:30.950Z,18.97
2018-06-05T09:17:00.869Z,17.00
2018-06-05T09:19:31.393Z,22.90
2018-06-05T09:22:01.187Z,18.13
2018-06-05T09:24:31.243Z,23.43
2018-06-05T09:27:01.482Z,12.67
2018-06-05T09:29:32.182Z,18.40
2018-06-05T09:32:02.710Z,18.20
2018-06-05T09:34:32.871Z,16.13
2018-06-05T09:37:03.155Z,11.70
2018-06-05T09:39:33.076Z,9.13
2018-06-05T09:42:05.509Z,17.73
2018-06-05T09:44:35.250Z,13.03
2018-06-05T09:47:05.265Z,11.63
2018-06-05T09:49:35.268Z,12.37
2018-06-05T09:52:05.161Z,19.47
2018-06-05T09:54:35.008Z,14.60
2018-06-05T09:57:05.230Z,10.93
2018-06-05T09:59:35.149Z,12.37
2018-06-05T10:02:05.163Z,19.77
2018-06-05T10:04:35.141Z,18.70
2018-06-05T10:07:06.117Z,19.57
2018-06-05T10:09:36.200Z,15.87
2018-06-05T10:12:06.029Z,14.33
2018-06-05T10:14:35.841Z,14.20
2018-06-05T10:17:05.672Z,10.83
2018-06-05T10:19:35.755Z,12.33
2018-06-05T10:22:06.013Z,20.23
2018-06-05T10:24:36.334Z,17.57
2018-06-05T10:27:06.372Z,16.87
2018-06-05T10:29:36.270Z,11.67
2018-06-05T10:32:06.183Z,11.27
2018-06-05T10:34:35.900Z,10.03
2018-06-05T10:37:05.937Z,18.13
2018-06-05T10:39:35.927Z,10.77
2018-06-05T10:42:06.048Z,16.00
2018-06-05T10:45:58.123Z,8.40
2018-06-05T10:48:28.628Z,14.23
2018-06-05T10:50:59.152Z,13.37
2018-06-05T10:53:29.266Z,12.53
2018-06-05T10:55:59.196Z,13.17
2018-06-05T10:58:29.192Z,9.97
2018-06-05T11:00:59.108Z,9.13
2018-06-05T11:03:28.818Z,17.40
2018-06-05T11:05:58.628Z,16.60
2018-06-05T11:08:28.544Z,24.20
2018-06-05T11:10:58.665Z,18.20
2018-06-05T11:13:29.277Z,17.07
2018-06-05T11:15:59.208Z,14.50
2018-06-05T11:18:29.430Z,11.43
2018-06-05T11:20:59.259Z,14.17
2018-06-05T11:23:29.054Z,14.43
2018-06-05T11:25:58.969Z,16.07
2018-06-05T11:28:29.089Z,15.50
2018-06-05T11:30:59.721Z,9.80
2018-06-05T11:33:29.737Z,15.63
2018-06-05T11:35:59.756Z,10.83
2018-06-05T11:38:29.547Z,8.07
2018-06-05T11:40:59.482Z,12.80
2018-06-05T11:43:29.453Z,9.33
2018-06-05T11:45:59.310Z,9.33
2018-06-05T11:48:29.641Z,13.83
2018-06-05T11:50:59.343Z,13.80
2018-06-05T11:53:29.156Z,11.00
2018-06-05T11:55:59.084Z,9.83
2018-06-05T11:58:28.985Z,8.43
2018-06-05T12:00:58.897Z,15.47
2018-06-05T12:03:28.915Z,14.27
2018-06-05T12:05:58.815Z,10.77
2018-06-05T12:08:29.051Z,7.63
2018-06-05T12:10:58.739Z,13.07
2018-06-05T12:13:28.767Z,12.07
2018-06-05T12:15:58.736Z,17.40
2018-06-05T12:18:28.607Z,16.43
2018-06-05T12:20:58.529Z,12.67
2018-06-05T12:23:28.333Z,11.10
2018-06-05T12:25:58.141Z,15.20
2018-06-05T12:28:28.163Z,14.83
2018-06-05T12:30:58.729Z,12.50
2018-06-05T12:33:28.735Z,12.57
2018-06-05T12:35:58.929Z,10.27
2018-06-05T12:38:29.115Z,12.60
2018-06-05T12:40:59.075Z,8.73
2018-06-05T12:43:29.188Z,10.60
2018-06-05T12:46:00.078Z,8.70
2018-06-05T12:48:29.842Z,11.63
2018-06-05T12:50:59.951Z,12.10
2018-06-05T12:53:29.847Z,8.57
2018-06-05T12:56:00.293Z,7.33
2018-06-05T12:58:30.108Z,12.43
2018-06-05T13:01:00.332Z,8.00
2018-06-05T13:03:30.140Z,15.33
2018-06-05T13:06:00.769Z,6.23
2018-06-05T13:08:30.684Z,6.50
2018-06-05T13:11:00.474Z,7.23
2018-06-05T13:13:30.410Z,9.10
2018-06-05T13:16:00.428Z,7.57
2018-06-05T13:18:30.454Z,6.47
2018-06-05T13:21:00.362Z,15.33
2018-06-05T13:23:30.314Z,10.80
2018-06-05T13:26:00.190Z,10.63
2018-06-05T13:28:29.903Z,8.60
2018-06-05T13:30:59.993Z,8.60
2018-06-05T13:33:29.727Z,6.57
2018-06-05T13:35:59.553Z,7.90
2018-06-05T13:38:29.645Z,6.63
2018-06-05T13:40:59.473Z,5.80
2018-06-05T13:43:29.284Z,6.90
2018-06-05T13:45:59.181Z,7.53
2018-06-05T13:48:29.110Z,6.47
2018-06-05T13:50:59.035Z,6.13
2018-06-05T13:53:29.147Z,6.47
2018-06-05T13:55:58.862Z,5.33
2018-06-05T13:58:29.081Z,5.70
2018-06-05T14:00:58.997Z,4.87
2018-06-05T14:03:29.010Z,11.70
2018-06-05T14:05:59.129Z,5.63
2018-06-05T14:08:29.149Z,6.00
2018-06-05T14:10:59.269Z,4.70
2018-06-05T14:13:29.187Z,5.73
2018-06-05T14:15:59.566Z,6.47
2018-06-05T14:18:30.748Z,5.17
2018-06-05T14:21:00.670Z,12.60
2018-06-05T14:23:30.476Z,5.53
2018-06-05T14:26:00.414Z,7.10
2018-06-05T14:28:30.405Z,4.37
2018-06-05T14:31:00.638Z,5.00
2018-06-05T14:33:30.559Z,5.80
2018-06-05T14:36:00.685Z,5.10
2018-06-05T14:38:30.781Z,4.30
2018-06-05T14:41:00.694Z,5.13
2018-06-05T14:43:30.406Z,4.47
2018-06-05T14:46:00.221Z,4.00
2018-06-05T14:49:01.058Z,3.97
2018-06-05T14:51:30.911Z,4.30
2018-06-05T14:54:00.890Z,3.93
2018-06-05T14:56:30.799Z,3.50
2018-06-05T14:59:00.862Z,4.00
2018-06-05T15:01:31.553Z,4.70
2018-06-05T15:04:01.766Z,4.07
2018-06-05T15:06:32.301Z,5.00
2018-06-05T15:09:02.113Z,3.93
2018-06-05T15:11:32.897Z,4.43
2018-06-05T15:14:03.171Z,6.30
2018-06-05T15:16:33.313Z,5.10
2018-06-05T15:19:02.998Z,4.63
2018-06-05T15:21:32.821Z,5.60
2018-06-05T15:24:02.812Z,6.93
2018-06-05T15:26:32.757Z,4.23
2018-06-05T15:29:02.924Z,5.23
2018-06-05T15:31:33.042Z,4.17
2018-06-05T15:34:02.817Z,4.90
2018-06-05T15:36:32.812Z,5.50
2018-06-05T15:39:02.726Z,4.30
2018-06-05T15:41:33.255Z,5.67
2018-06-05T15:44:03.683Z,3.90
2018-06-05T15:46:34.312Z,3.80
2018-06-05T15:49:04.535Z,4.70
2018-06-05T15:51:35.272Z,5.03
2018-06-05T15:54:05.343Z,5.23
2018-06-05T15:56:35.206Z,5.50
2018-06-05T15:59:05.120Z,3.80
2018-06-05T16:01:35.436Z,4.10
2018-06-05T16:04:05.654Z,4.37
2018-06-05T16:06:36.712Z,4.40
2018-06-05T16:09:10.310Z,4.17
2018-06-05T16:11:40.465Z,4.87
2018-06-05T16:14:10.540Z,4.60
2018-06-05T16:16:40.659Z,5.83
2018-06-05T16:19:11.187Z,4.90
2018-06-05T16:21:41.114Z,4.20
2018-06-05T16:24:11.428Z,3.87
2018-06-05T16:26:41.757Z,6.70
2018-06-05T16:29:11.748Z,4.13
2018-06-05T16:31:42.071Z,3.87
2018-06-05T16:34:12.012Z,3.73
2018-06-05T16:36:42.175Z,5.50
2018-06-05T16:39:15.221Z,4.93
2018-06-05T16:41:52.674Z,3.80
2018-06-05T16:44:29.279Z,4.57
2018-06-05T16:46:59.191Z,3.70
2018-06-05T16:49:29.822Z,3.63
2018-06-05T16:51:59.744Z,3.27
2018-06-05T16:54:29.857Z,3.93
2018-06-05T16:57:00.180Z,3.10
2018-06-05T16:59:30.232Z,2.90
2018-06-05T17:02:00.696Z,4.97
2018-06-05T17:04:31.749Z,3.70
2018-06-05T17:07:01.796Z,3.30
2018-06-05T17:09:31.482Z,3.53
2018-06-05T17:12:01.513Z,3.57
2018-06-05T17:14:31.769Z,3.73
2018-06-05T17:17:02.056Z,3.83
2018-06-05T17:19:32.131Z,3.60
2018-06-05T17:22:02.413Z,3.87
2018-06-05T17:24:32.311Z,25.57
2018-06-05T17:27:02.243Z,34.00
2018-06-05T17:29:32.559Z,40.00
2018-06-05T17:32:03.490Z,34.13
2018-06-05T17:34:33.615Z,23.00
2018-06-05T17:37:03.823Z,26.90
2018-06-05T17:39:34.804Z,18.37
2018-06-05T17:42:04.684Z,16.80
2018-06-05T17:44:34.855Z,19.30
2018-06-05T17:47:05.034Z,14.30
2018-06-05T17:49:34.633Z,12.60
2018-06-05T17:52:04.736Z,16.83
2018-06-05T17:54:35.485Z,11.03
2018-06-05T17:57:05.910Z,10.43
2018-06-05T17:59:36.297Z,8.70
2018-06-05T18:02:06.672Z,7.93
2018-06-05T18:04:36.478Z,8.83
2018-06-05T18:07:06.490Z,6.23
2018-06-05T18:09:37.120Z,8.40
2018-06-05T18:12:07.056Z,6.33
2018-06-05T18:14:36.960Z,9.00
2018-06-05T18:17:07.478Z,6.30
2018-06-05T18:19:37.699Z,5.80
2018-06-05T18:22:07.801Z,5.60
2018-06-05T18:24:37.812Z,6.63
2018-06-05T18:27:08.465Z,5.70
2018-06-05T18:29:38.588Z,7.23
2018-06-05T18:32:08.507Z,5.90
2018-06-05T18:34:38.415Z,7.57
2018-06-05T18:37:08.514Z,6.07
2018-06-05T18:39:38.456Z,6.03
2018-06-05T18:42:09.387Z,6.10
2018-06-05T18:44:39.301Z,5.63
2018-06-05T18:47:09.217Z,5.90
2018-06-05T18:49:39.134Z,7.60
2018-06-05T18:52:08.943Z,6.47
2018-06-05T18:54:38.960Z,6.40
2018-06-05T18:57:08.878Z,7.00
2018-06-05T18:59:39.078Z,7.43
2018-06-05T19:02:09.627Z,7.73
2018-06-05T19:04:39.775Z,9.33
2018-06-05T19:07:09.798Z,7.23
2018-06-05T19:09:39.675Z,8.07
2018-06-05T19:12:09.983Z,8.87
2018-06-05T19:14:40.464Z,8.10
2018-06-05T19:17:10.621Z,7.47
2018-06-05T19:19:40.804Z,8.07
2018-06-05T19:22:11.200Z,8.17
2018-06-05T19:24:42.132Z,9.80
2018-06-05T19:27:12.648Z,8.20
2018-06-05T19:29:42.741Z,10.30
2018-06-05T19:32:12.898Z,8.37
2018-06-05T19:34:43.023Z,10.37
2018-06-05T19:37:13.923Z,8.60
2018-06-05T19:39:47.198Z,9.47
2018-06-05T19:42:17.589Z,8.60
2018-06-05T19:44:47.734Z,10.70
2018-06-05T19:47:18.000Z,9.80
2018-06-05T19:49:48.341Z,10.20
2018-06-05T19:52:18.260Z,11.10
2018-06-05T19:54:48.273Z,9.57
2018-06-05T19:57:18.372Z,9.53
2018-06-05T19:59:48.353Z,10.10
2018-06-05T20:02:18.379Z,10.63
2018-06-05T20:04:48.471Z,10.43
2018-06-05T20:07:18.358Z,10.33
2018-06-05T20:09:48.169Z,10.50
2018-06-05T20:12:18.596Z,11.27
2018-06-05T20:14:48.549Z,11.63
2018-06-05T20:17:18.557Z,10.43
2018-06-05T20:19:48.747Z,9.50
2018-06-05T20:22:18.815Z,10.60
2018-06-05T20:24:48.679Z,11.30
2018-06-05T20:27:18.498Z,9.70
2018-06-05T20:29:48.544Z,9.07
2018-06-05T20:32:19.544Z,9.70
2018-06-05T20:34:49.663Z,8.97
2018-06-05T20:37:19.879Z,8.87
2018-06-05T20:39:50.010Z,8.53
2018-06-05T20:42:20.130Z,9.17
2018-06-05T20:44:50.117Z,9.70
2018-06-05T20:47:20.339Z,10.97
2018-06-05T20:49:50.310Z,12.10
2018-06-05T20:52:20.416Z,8.90
2018-06-05T20:54:50.357Z,10.67
2018-06-05T20:57:20.436Z,9.50
2018-06-05T20:59:50.352Z,9.17
2018-06-05T21:02:20.264Z,9.97
2018-06-05T21:04:50.372Z,9.40
2018-06-05T21:07:20.551Z,8.20
2018-06-05T21:09:50.723Z,8.80
2018-06-05T21:12:20.744Z,10.40
2018-06-05T21:14:50.656Z,16.23
2018-06-05T21:17:20.661Z,9.40
2018-06-05T21:19:50.484Z,8.67
2018-06-05T21:22:20.809Z,8.73
2018-06-05T21:24:50.933Z,8.97
2018-06-05T21:27:21.049Z,12.57
2018-06-05T21:29:51.168Z,8.67
2018-06-05T21:32:21.189Z,8.10
2018-06-05T21:34:51.408Z,9.00
2018-06-05T21:37:21.985Z,8.27
2018-06-05T21:39:52.017Z,8.80
2018-06-05T21:42:22.280Z,8.57
2018-06-05T21:44:52.062Z,8.03
2018-06-05T21:47:21.898Z,8.57
2018-06-05T21:49:51.903Z,7.47
2018-06-05T21:52:22.958Z,7.10
2018-06-05T21:54:53.185Z,7.00
2018-06-05T21:57:22.891Z,7.67
2018-06-05T21:59:52.758Z,7.20
2018-06-05T22:02:22.904Z,7.50
2018-06-05T22:04:52.818Z,6.50
2018-06-05T22:07:22.751Z,6.20
2018-06-05T22:09:52.663Z,7.80
2018-06-05T22:12:23.194Z,5.70
2018-06-05T22:14:53.195Z,6.20
2018-06-05T22:17:23.025Z,5.57
2018-06-05T22:19:52.937Z,6.30
2018-06-05T22:22:23.159Z,5.40
2018-06-05T22:24:53.173Z,5.57
2018-06-05T22:27:23.089Z,4.73
2018-06-05T22:29:53.309Z,6.10
2018-06-05T22:32:23.224Z,5.20
2018-06-05T22:34:52.933Z,4.70
2018-06-05T22:37:22.747Z,4.60
2018-06-05T22:39:52.767Z,5.50
2018-06-05T22:42:22.678Z,4.27
2018-06-05T22:44:52.606Z,4.80
2018-06-05T22:47:22.506Z,3.97
2018-06-05T22:49:53.204Z,5.80
2018-06-05T22:52:23.155Z,5.63
2018-06-05T22:54:53.171Z,4.30
2018-06-05T22:57:23.167Z,4.57
2018-06-05T22:59:53.004Z,6.50
2018-06-05T23:02:22.813Z,4.20
2018-06-05T23:04:52.609Z,3.47
2018-06-05T23:07:22.845Z,4.20
2018-06-05T23:09:52.965Z,4.37
2018-06-05T23:12:23.699Z,3.70
2018-06-05T23:14:53.411Z,4.40
2018-06-05T23:17:23.323Z,3.50
2018-06-05T23:19:53.544Z,3.40
2018-06-05T23:22:23.358Z,3.60
2018-06-05T23:24:53.271Z,4.30
2018-06-05T23:27:23.188Z,3.23
2018-06-05T23:29:53.099Z,3.83
2018-06-05T23:32:22.912Z,4.30
2018-06-05T23:34:52.621Z,4.40
2018-06-05T23:37:22.330Z,3.43
2018-06-05T23:39:52.041Z,4.83
2018-06-05T23:42:21.886Z,3.90
2018-06-05T23:44:51.956Z,2.87
2018-06-05T23:47:21.681Z,3.20
2018-06-05T23:49:51.393Z,3.90
2018-06-05T23:52:20.999Z,3.13
2018-06-05T23:54:50.707Z,3.27
2018-06-05T23:57:20.426Z,5.93
2018-06-05T23:59:50.332Z,3.00
